sensor_id;sensor_type;location;lat;lon;timestamp;temperature;humidity
8643;DHT22;4359;49.358;11.256;2022-10-31T00:00:44;8.50;99.90
8643;DHT22;4359;49.358;11.256;2022-10-31T00:03:09;8.50;99.90
8643;DHT22;4359;49.358;11.256;2022-10-31T00:05:35;8.50;99.90
8643;DHT22;4359;49.358;11.256;2022-10-31T00:08:01;8.50;99.90
8643;DHT22;4359;49.358;11.256;2022-10-31T00:10:26;8.50;99.90
8643;DHT22;4359;49.358;11.256;2022-10-31T00:12:52;8.70;99.90
8643;DHT22;4359;49.358;11.256;2022-10-31T00:15:17;8.80;99.90
8643;DHT22;4359;49.358;11.256;2022-10-31T00:17:43;8.80;99.90
8643;DHT22;4359;49.358;11.256;2022-10-31T00:20:09;8.70;99.90
8643;DHT22;4359;49.358;11.256;2022-10-31T00:22:34;8.60;99.90
8643;DHT22;4359;49.358;11.256;2022-10-31T00:25:00;8.60;99.90
8643;DHT22;4359;49.358;11.256;2022-10-31T00:27:26;8.60;99.90
8643;DHT22;4359;49.358;11.256;2022-10-31T00:29:51;8.50;99.90
8643;DHT22;4359;49.358;11.256;2022-10-31T00:32:17;8.40;99.90
8643;DHT22;4359;49.358;11.256;2022-10-31T00:34:43;8.30;99.90
8643;DHT22;4359;49.358;11.256;2022-10-31T00:37:08;8.20;99.90
8643;DHT22;4359;49.358;11.256;2022-10-31T00:39:34;8.20;99.90
8643;DHT22;4359;49.358;11.256;2022-10-31T00:41:59;8.20;99.90
8643;DHT22;4359;49.358;11.256;2022-10-31T00:44:25;8.20;99.90
8643;DHT22;4359;49.358;11.256;2022-10-31T00:46:50;8.00;99.90
8643;DHT22;4359;49.358;11.256;2022-10-31T00:49:16;8.00;99.90
8643;DHT22;4359;49.358;11.256;2022-10-31T00:51:42;7.90;99.90
8643;DHT22;4359;49.358;11.256;2022-10-31T00:54:07;7.80;99.90
8643;DHT22;4359;49.358;11.256;2022-10-31T00:56:33;7.80;99.90
8643;DHT22;4359;49.358;11.256;2022-10-31T00:58:59;7.70;99.90
8643;DHT22;4359;49.358;11.256;2022-10-31T01:01:24;7.70;99.90
8643;DHT22;4359;49.358;11.256;2022-10-31T01:03:50;7.60;99.90
8643;DHT22;4359;49.358;11.256;2022-10-31T01:06:16;7.60;99.90
8643;DHT22;4359;49.358;11.256;2022-10-31T01:08:42;7.60;99.90
8643;DHT22;4359;49.358;11.256;2022-10-31T01:11:16;7.60;99.90
8643;DHT22;4359;49.358;11.256;2022-10-31T01:13:43;7.60;99.90
8643;DHT22;4359;49.358;11.256;2022-10-31T01:16:12;7.60;99.90
8643;DHT22;4359;49.358;11.256;2022-10-31T01:18:38;7.60;99.90
8643;DHT22;4359;49.358;11.256;2022-10-31T01:21:14;7.60;99.90
8643;DHT22;4359;49.358;11.256;2022-10-31T01:23:39;7.60;99.90
8643;DHT22;4359;49.358;11.256;2022-10-31T01:26:07;7.50;99.90
8643;DHT22;4359;49.358;11.256;2022-10-31T01:28:35;7.60;99.90
8643;DHT22;4359;49.358;11.256;2022-10-31T01:31:03;7.50;99.90
8643;DHT22;4359;49.358;11.256;2022-10-31T01:33:29;7.50;99.90
8643;DHT22;4359;49.358;11.256;2022-10-31T01:35:54;7.50;99.90
8643;DHT22;4359;49.358;11.256;2022-10-31T01:38:20;7.50;99.90
8643;DHT22;4359;49.358;11.256;2022-10-31T01:40:46;7.50;99.90
8643;DHT22;4359;49.358;11.256;2022-10-31T01:43:15;7.40;99.90
8643;DHT22;4359;49.358;11.256;2022-10-31T01:45:42;7.40;99.90
8643;DHT22;4359;49.358;11.256;2022-10-31T01:48:14;7.40;99.90
8643;DHT22;4359;49.358;11.256;2022-10-31T01:50:41;7.40;99.90
8643;DHT22;4359;49.358;11.256;2022-10-31T01:53:09;7.40;99.90
8643;DHT22;4359;49.358;11.256;2022-10-31T01:55:39;7.40;99.90
8643;DHT22;4359;49.358;11.256;2022-10-31T01:58:12;7.30;99.90
8643;DHT22;4359;49.358;11.256;2022-10-31T02:00:40;7.40;99.90
8643;DHT22;4359;49.358;11.256;2022-10-31T02:03:07;7.40;99.90
8643;DHT22;4359;49.358;11.256;2022-10-31T02:05:32;7.50;99.90
8643;DHT22;4359;49.358;11.256;2022-10-31T02:08:10;7.60;99.90
8643;DHT22;4359;49.358;11.256;2022-10-31T02:10:38;7.60;99.90
8643;DHT22;4359;49.358;11.256;2022-10-31T02:13:06;7.60;99.90
8643;DHT22;4359;49.358;11.256;2022-10-31T02:15:33;7.60;99.90
8643;DHT22;4359;49.358;11.256;2022-10-31T02:18:00;7.60;99.90
8643;DHT22;4359;49.358;11.256;2022-10-31T02:20:29;7.60;99.90
8643;DHT22;4359;49.358;11.256;2022-10-31T02:23:20;7.50;99.90
8643;DHT22;4359;49.358;11.256;2022-10-31T02:40:27;7.40;99.90
8643;DHT22;4359;49.358;11.256;2022-10-31T02:48:42;6.90;99.90
8643;DHT22;4359;49.358;11.256;2022-10-31T02:51:11;6.80;99.90
8643;DHT22;4359;49.358;11.256;2022-10-31T02:53:37;6.80;99.90
8643;DHT22;4359;49.358;11.256;2022-10-31T02:56:17;6.70;99.90
8643;DHT22;4359;49.358;11.256;2022-10-31T02:59:02;6.70;99.90
8643;DHT22;4359;49.358;11.256;2022-10-31T03:06:33;6.50;99.90
8643;DHT22;4359;49.358;11.256;2022-10-31T03:09:15;6.40;99.90
8643;DHT22;4359;49.358;11.256;2022-10-31T03:12:25;6.50;99.90
8643;DHT22;4359;49.358;11.256;2022-10-31T03:15:00;6.50;99.90
8643;DHT22;4359;49.358;11.256;2022-10-31T03:17:37;6.50;99.90
8643;DHT22;4359;49.358;11.256;2022-10-31T03:20:04;6.40;99.90
8643;DHT22;4359;49.358;11.256;2022-10-31T03:22:32;6.30;99.90
8643;DHT22;4359;49.358;11.256;2022-10-31T03:25:01;6.20;99.90
8643;DHT22;4359;49.358;11.256;2022-10-31T03:27:32;6.20;99.90
8643;DHT22;4359;49.358;11.256;2022-10-31T03:30:01;6.20;99.90
8643;DHT22;4359;49.358;11.256;2022-10-31T03:32:37;6.30;99.90
8643;DHT22;4359;49.358;11.256;2022-10-31T03:35:06;6.40;99.90
8643;DHT22;4359;49.358;11.256;2022-10-31T03:37:33;6.40;99.90
8643;DHT22;4359;49.358;11.256;2022-10-31T03:40:01;6.40;99.90
8643;DHT22;4359;49.358;11.256;2022-10-31T03:42:31;6.50;99.90
8643;DHT22;4359;49.358;11.256;2022-10-31T03:45:15;6.50;99.90
8643;DHT22;4359;49.358;11.256;2022-10-31T03:47:43;6.50;99.90
8643;DHT22;4359;49.358;11.256;2022-10-31T03:50:11;6.50;99.90
8643;DHT22;4359;49.358;11.256;2022-10-31T03:52:46;6.50;99.90
8643;DHT22;4359;49.358;11.256;2022-10-31T03:55:17;6.40;99.90
8643;DHT22;4359;49.358;11.256;2022-10-31T03:57:53;6.40;99.90
8643;DHT22;4359;49.358;11.256;2022-10-31T04:00:21;6.40;99.90
8643;DHT22;4359;49.358;11.256;2022-10-31T04:05:19;6.40;99.90
8643;DHT22;4359;49.358;11.256;2022-10-31T04:07:47;6.40;99.90
8643;DHT22;4359;49.358;11.256;2022-10-31T04:10:15;6.40;99.90
8643;DHT22;4359;49.358;11.256;2022-10-31T04:12:44;6.40;99.90
8643;DHT22;4359;49.358;11.256;2022-10-31T04:15:12;6.30;99.90
8643;DHT22;4359;49.358;11.256;2022-10-31T04:17:39;6.20;99.90
8643;DHT22;4359;49.358;11.256;2022-10-31T04:20:05;6.20;99.90
8643;DHT22;4359;49.358;11.256;2022-10-31T04:22:31;6.10;99.90
8643;DHT22;4359;49.358;11.256;2022-10-31T04:24:57;6.00;99.90
8643;DHT22;4359;49.358;11.256;2022-10-31T04:27:22;6.00;99.90
8643;DHT22;4359;49.358;11.256;2022-10-31T04:29:48;6.00;99.90
8643;DHT22;4359;49.358;11.256;2022-10-31T04:32:14;6.00;99.90
8643;DHT22;4359;49.358;11.256;2022-10-31T04:34:39;5.90;99.90
8643;DHT22;4359;49.358;11.256;2022-10-31T04:37:05;5.90;99.90
8643;DHT22;4359;49.358;11.256;2022-10-31T04:39:30;5.80;99.90
8643;DHT22;4359;49.358;11.256;2022-10-31T04:41:56;5.70;99.90
8643;DHT22;4359;49.358;11.256;2022-10-31T04:44:21;5.70;99.90
8643;DHT22;4359;49.358;11.256;2022-10-31T04:46:47;5.60;99.90
8643;DHT22;4359;49.358;11.256;2022-10-31T04:49:13;5.60;99.90
8643;DHT22;4359;49.358;11.256;2022-10-31T04:51:38;5.60;99.90
8643;DHT22;4359;49.358;11.256;2022-10-31T04:54:04;5.60;99.90
8643;DHT22;4359;49.358;11.256;2022-10-31T04:56:30;5.60;99.90
8643;DHT22;4359;49.358;11.256;2022-10-31T04:58:55;5.60;99.90
8643;DHT22;4359;49.358;11.256;2022-10-31T05:01:21;5.50;99.90
8643;DHT22;4359;49.358;11.256;2022-10-31T05:03:47;5.50;99.90
8643;DHT22;4359;49.358;11.256;2022-10-31T05:06:12;5.50;99.90
8643;DHT22;4359;49.358;11.256;2022-10-31T05:08:38;5.50;99.90
8643;DHT22;4359;49.358;11.256;2022-10-31T05:11:04;5.50;99.90
8643;DHT22;4359;49.358;11.256;2022-10-31T05:13:30;5.50;99.90
8643;DHT22;4359;49.358;11.256;2022-10-31T05:15:56;5.50;99.90
8643;DHT22;4359;49.358;11.256;2022-10-31T05:18:21;5.50;99.90
8643;DHT22;4359;49.358;11.256;2022-10-31T05:20:48;5.50;99.90
8643;DHT22;4359;49.358;11.256;2022-10-31T05:23:13;5.50;99.90
8643;DHT22;4359;49.358;11.256;2022-10-31T05:25:39;5.50;99.90
8643;DHT22;4359;49.358;11.256;2022-10-31T05:28:05;5.50;99.90
8643;DHT22;4359;49.358;11.256;2022-10-31T05:30:32;5.50;99.90
8643;DHT22;4359;49.358;11.256;2022-10-31T05:32:57;5.50;99.90
8643;DHT22;4359;49.358;11.256;2022-10-31T05:35:25;5.40;99.90
8643;DHT22;4359;49.358;11.256;2022-10-31T05:37:50;5.50;99.90
8643;DHT22;4359;49.358;11.256;2022-10-31T05:40:17;5.40;99.90
8643;DHT22;4359;49.358;11.256;2022-10-31T05:42:43;5.50;99.90
8643;DHT22;4359;49.358;11.256;2022-10-31T05:45:14;5.60;99.90
8643;DHT22;4359;49.358;11.256;2022-10-31T05:47:41;5.70;99.90
8643;DHT22;4359;49.358;11.256;2022-10-31T05:50:06;5.70;99.90
8643;DHT22;4359;49.358;11.256;2022-10-31T05:52:32;5.70;99.90
8643;DHT22;4359;49.358;11.256;2022-10-31T05:54:58;5.60;99.90
8643;DHT22;4359;49.358;11.256;2022-10-31T05:57:23;5.60;99.90
8643;DHT22;4359;49.358;11.256;2022-10-31T05:59:49;5.60;99.90
8643;DHT22;4359;49.358;11.256;2022-10-31T06:02:21;5.60;99.90
8643;DHT22;4359;49.358;11.256;2022-10-31T06:04:47;5.60;99.90
8643;DHT22;4359;49.358;11.256;2022-10-31T06:07:12;5.50;99.90
8643;DHT22;4359;49.358;11.256;2022-10-31T06:09:38;5.50;99.90
8643;DHT22;4359;49.358;11.256;2022-10-31T06:12:04;5.50;99.90
8643;DHT22;4359;49.358;11.256;2022-10-31T06:14:29;5.50;99.90
8643;DHT22;4359;49.358;11.256;2022-10-31T06:16:55;5.50;99.90
8643;DHT22;4359;49.358;11.256;2022-10-31T06:19:21;5.50;99.90
8643;DHT22;4359;49.358;11.256;2022-10-31T06:21:47;5.40;99.90
8643;DHT22;4359;49.358;11.256;2022-10-31T06:24:12;5.40;99.90
8643;DHT22;4359;49.358;11.256;2022-10-31T06:26:38;5.50;99.90
8643;DHT22;4359;49.358;11.256;2022-10-31T06:29:03;5.50;99.90
8643;DHT22;4359;49.358;11.256;2022-10-31T06:31:29;5.60;99.90
8643;DHT22;4359;49.358;11.256;2022-10-31T06:33:55;5.60;99.90
8643;DHT22;4359;49.358;11.256;2022-10-31T06:36:20;5.70;99.90
8643;DHT22;4359;49.358;11.256;2022-10-31T06:38:46;5.70;99.90
8643;DHT22;4359;49.358;11.256;2022-10-31T06:41:11;5.90;99.90
8643;DHT22;4359;49.358;11.256;2022-10-31T06:43:37;6.00;99.90
8643;DHT22;4359;49.358;11.256;2022-10-31T06:46:03;6.10;99.90
8643;DHT22;4359;49.358;11.256;2022-10-31T06:48:30;6.20;99.90
8643;DHT22;4359;49.358;11.256;2022-10-31T06:50:59;6.40;99.90
8643;DHT22;4359;49.358;11.256;2022-10-31T06:53:26;6.40;99.90
8643;DHT22;4359;49.358;11.256;2022-10-31T06:55:52;6.70;99.90
8643;DHT22;4359;49.358;11.256;2022-10-31T06:58:17;7.00;99.90
8643;DHT22;4359;49.358;11.256;2022-10-31T07:00:43;7.30;99.90
8643;DHT22;4359;49.358;11.256;2022-10-31T07:03:11;7.50;99.90
8643;DHT22;4359;49.358;11.256;2022-10-31T07:05:37;7.90;99.90
8643;DHT22;4359;49.358;11.256;2022-10-31T07:08:08;8.20;99.90
8643;DHT22;4359;49.358;11.256;2022-10-31T07:10:35;8.40;99.90
8643;DHT22;4359;49.358;11.256;2022-10-31T07:13:04;8.30;99.90
8643;DHT22;4359;49.358;11.256;2022-10-31T07:15:34;8.40;99.90
8643;DHT22;4359;49.358;11.256;2022-10-31T07:18:01;8.60;99.90
8643;DHT22;4359;49.358;11.256;2022-10-31T07:20:27;8.90;99.90
8643;DHT22;4359;49.358;11.256;2022-10-31T07:22:53;9.20;99.90
8643;DHT22;4359;49.358;11.256;2022-10-31T07:25:20;9.50;99.90
8643;DHT22;4359;49.358;11.256;2022-10-31T07:27:45;9.50;99.90
8643;DHT22;4359;49.358;11.256;2022-10-31T07:30:12;9.50;99.90
8643;DHT22;4359;49.358;11.256;2022-10-31T07:32:39;9.70;99.90
8643;DHT22;4359;49.358;11.256;2022-10-31T07:35:07;9.70;99.90
8643;DHT22;4359;49.358;11.256;2022-10-31T07:37:33;10.00;99.90
8643;DHT22;4359;49.358;11.256;2022-10-31T07:39:59;10.20;99.90
8643;DHT22;4359;49.358;11.256;2022-10-31T07:42:24;10.30;99.90
8643;DHT22;4359;49.358;11.256;2022-10-31T07:44:50;10.50;99.90
8643;DHT22;4359;49.358;11.256;2022-10-31T07:47:16;10.80;99.90
8643;DHT22;4359;49.358;11.256;2022-10-31T07:49:41;11.00;99.90
8643;DHT22;4359;49.358;11.256;2022-10-31T07:52:07;11.20;99.90
8643;DHT22;4359;49.358;11.256;2022-10-31T07:54:32;11.30;99.90
8643;DHT22;4359;49.358;11.256;2022-10-31T07:56:58;11.60;99.90
8643;DHT22;4359;49.358;11.256;2022-10-31T07:59:23;11.80;99.90
8643;DHT22;4359;49.358;11.256;2022-10-31T08:01:51;12.00;99.90
8643;DHT22;4359;49.358;11.256;2022-10-31T08:04:16;12.10;99.90
8643;DHT22;4359;49.358;11.256;2022-10-31T08:06:42;12.30;99.90
8643;DHT22;4359;49.358;11.256;2022-10-31T08:09:07;12.50;99.90
8643;DHT22;4359;49.358;11.256;2022-10-31T08:11:33;12.90;99.90
8643;DHT22;4359;49.358;11.256;2022-10-31T08:13:59;13.20;99.90
8643;DHT22;4359;49.358;11.256;2022-10-31T08:16:24;13.60;99.90
8643;DHT22;4359;49.358;11.256;2022-10-31T08:18:50;13.90;99.90
8643;DHT22;4359;49.358;11.256;2022-10-31T08:21:15;14.30;99.90
8643;DHT22;4359;49.358;11.256;2022-10-31T08:23:41;14.40;99.90
8643;DHT22;4359;49.358;11.256;2022-10-31T08:26:07;14.30;99.90
8643;DHT22;4359;49.358;11.256;2022-10-31T08:28:32;14.40;99.90
8643;DHT22;4359;49.358;11.256;2022-10-31T08:30:58;14.70;99.90
8643;DHT22;4359;49.358;11.256;2022-10-31T08:33:24;14.80;99.90
8643;DHT22;4359;49.358;11.256;2022-10-31T08:35:50;15.00;99.90
8643;DHT22;4359;49.358;11.256;2022-10-31T08:38:16;14.70;99.90
8643;DHT22;4359;49.358;11.256;2022-10-31T08:40:42;14.70;99.90
8643;DHT22;4359;49.358;11.256;2022-10-31T08:43:13;15.00;99.90
8643;DHT22;4359;49.358;11.256;2022-10-31T08:45:39;15.20;99.90
8643;DHT22;4359;49.358;11.256;2022-10-31T08:48:10;15.10;99.90
8643;DHT22;4359;49.358;11.256;2022-10-31T08:50:36;15.20;99.90
8643;DHT22;4359;49.358;11.256;2022-10-31T08:53:07;15.10;99.90
8643;DHT22;4359;49.358;11.256;2022-10-31T08:55:34;15.40;99.90
8643;DHT22;4359;49.358;11.256;2022-10-31T08:58:00;15.80;99.90
8643;DHT22;4359;49.358;11.256;2022-10-31T09:00:26;15.90;99.90
8643;DHT22;4359;49.358;11.256;2022-10-31T09:03:11;16.00;99.90
8643;DHT22;4359;49.358;11.256;2022-10-31T09:05:37;15.80;99.90
8643;DHT22;4359;49.358;11.256;2022-10-31T09:08:04;15.30;99.90
8643;DHT22;4359;49.358;11.256;2022-10-31T09:10:32;15.10;99.90
8643;DHT22;4359;49.358;11.256;2022-10-31T09:12:59;14.90;99.90
8643;DHT22;4359;49.358;11.256;2022-10-31T09:15:26;14.70;99.90
8643;DHT22;4359;49.358;11.256;2022-10-31T09:17:52;14.60;99.90
8643;DHT22;4359;49.358;11.256;2022-10-31T09:20:19;14.50;99.90
8643;DHT22;4359;49.358;11.256;2022-10-31T09:22:44;14.60;99.90
8643;DHT22;4359;49.358;11.256;2022-10-31T09:25:10;14.60;99.90
8643;DHT22;4359;49.358;11.256;2022-10-31T09:27:36;14.70;99.90
8643;DHT22;4359;49.358;11.256;2022-10-31T09:30:02;14.80;99.90
8643;DHT22;4359;49.358;11.256;2022-10-31T09:32:28;14.90;99.90
8643;DHT22;4359;49.358;11.256;2022-10-31T09:34:53;15.00;99.90
8643;DHT22;4359;49.358;11.256;2022-10-31T09:37:19;15.20;99.90
8643;DHT22;4359;49.358;11.256;2022-10-31T09:39:45;15.40;99.90
8643;DHT22;4359;49.358;11.256;2022-10-31T09:42:41;15.50;99.90
8643;DHT22;4359;49.358;11.256;2022-10-31T09:45:16;15.70;99.90
8643;DHT22;4359;49.358;11.256;2022-10-31T09:50:44;16.10;99.90
8643;DHT22;4359;49.358;11.256;2022-10-31T09:56:01;16.40;99.90
8643;DHT22;4359;49.358;11.256;2022-10-31T09:58:30;16.60;99.90
8643;DHT22;4359;49.358;11.256;2022-10-31T10:01:00;16.80;99.90
8643;DHT22;4359;49.358;11.256;2022-10-31T10:03:41;16.90;99.90
8643;DHT22;4359;49.358;11.256;2022-10-31T10:06:18;17.00;99.90
8643;DHT22;4359;49.358;11.256;2022-10-31T10:08:44;17.10;99.90
8643;DHT22;4359;49.358;11.256;2022-10-31T10:11:35;17.20;99.90
8643;DHT22;4359;49.358;11.256;2022-10-31T10:29:51;18.20;99.90
8643;DHT22;4359;49.358;11.256;2022-10-31T10:32:28;18.30;99.90
8643;DHT22;4359;49.358;11.256;2022-10-31T10:35:02;18.50;99.90
8643;DHT22;4359;49.358;11.256;2022-10-31T10:37:37;18.80;99.90
8643;DHT22;4359;49.358;11.256;2022-10-31T10:40:20;19.00;99.90
8643;DHT22;4359;49.358;11.256;2022-10-31T10:43:12;19.20;99.90
8643;DHT22;4359;49.358;11.256;2022-10-31T10:45:49;19.50;99.90
8643;DHT22;4359;49.358;11.256;2022-10-31T10:48:43;19.60;99.90
8643;DHT22;4359;49.358;11.256;2022-10-31T10:51:28;19.90;99.90
8643;DHT22;4359;49.358;11.256;2022-10-31T10:59:28;20.40;99.90
8643;DHT22;4359;49.358;11.256;2022-10-31T11:01:54;20.50;99.90
8643;DHT22;4359;49.358;11.256;2022-10-31T11:04:35;20.80;99.90
8643;DHT22;4359;49.358;11.256;2022-10-31T11:07:09;21.00;99.90
8643;DHT22;4359;49.358;11.256;2022-10-31T11:09:35;21.30;99.90
8643;DHT22;4359;49.358;11.256;2022-10-31T11:12:24;21.50;99.90
8643;DHT22;4359;49.358;11.256;2022-10-31T11:14:58;21.60;99.90
8643;DHT22;4359;49.358;11.256;2022-10-31T11:17:33;21.90;99.90
8643;DHT22;4359;49.358;11.256;2022-10-31T11:22:46;22.10;99.90
8643;DHT22;4359;49.358;11.256;2022-10-31T11:25:23;22.20;99.90
8643;DHT22;4359;49.358;11.256;2022-10-31T11:28:00;22.30;99.90
8643;DHT22;4359;49.358;11.256;2022-10-31T11:30:26;22.50;99.90
8643;DHT22;4359;49.358;11.256;2022-10-31T11:32:52;22.50;99.90
8643;DHT22;4359;49.358;11.256;2022-10-31T11:35:19;22.60;99.90
8643;DHT22;4359;49.358;11.256;2022-10-31T11:37:48;22.60;99.90
8643;DHT22;4359;49.358;11.256;2022-10-31T11:40:18;22.60;99.90
8643;DHT22;4359;49.358;11.256;2022-10-31T11:42:44;22.60;99.90
8643;DHT22;4359;49.358;11.256;2022-10-31T11:45:36;22.80;99.90
8643;DHT22;4359;49.358;11.256;2022-10-31T11:48:12;22.90;99.90
8643;DHT22;4359;49.358;11.256;2022-10-31T11:50:41;22.80;99.90
8643;DHT22;4359;49.358;11.256;2022-10-31T11:53:29;22.90;99.90
8643;DHT22;4359;49.358;11.256;2022-10-31T11:56:12;22.90;99.90
8643;DHT22;4359;49.358;11.256;2022-10-31T11:58:38;23.00;99.90
8643;DHT22;4359;49.358;11.256;2022-10-31T12:01:04;23.20;99.90
8643;DHT22;4359;49.358;11.256;2022-10-31T12:06:23;23.20;99.90
8643;DHT22;4359;49.358;11.256;2022-10-31T12:08:50;23.10;99.90
8643;DHT22;4359;49.358;11.256;2022-10-31T12:16:22;23.10;99.90
8643;DHT22;4359;49.358;11.256;2022-10-31T12:35:10;23.50;99.90
8643;DHT22;4359;49.358;11.256;2022-10-31T12:37:49;23.50;99.90
8643;DHT22;4359;49.358;11.256;2022-10-31T12:40:44;23.50;99.90
8643;DHT22;4359;49.358;11.256;2022-10-31T12:45:56;23.50;99.90
8643;DHT22;4359;49.358;11.256;2022-10-31T12:48:46;23.60;99.90
8643;DHT22;4359;49.358;11.256;2022-10-31T12:57:29;23.60;99.90
8643;DHT22;4359;49.358;11.256;2022-10-31T13:00:13;23.60;99.90
8643;DHT22;4359;49.358;11.256;2022-10-31T13:02:54;23.30;99.90
8643;DHT22;4359;49.358;11.256;2022-10-31T13:05:36;23.10;99.90
8643;DHT22;4359;49.358;11.256;2022-10-31T13:08:07;22.90;99.90
8643;DHT22;4359;49.358;11.256;2022-10-31T13:11:11;22.70;99.90
8643;DHT22;4359;49.358;11.256;2022-10-31T13:13:47;22.60;99.90
8643;DHT22;4359;49.358;11.256;2022-10-31T13:16:25;22.30;99.90
8643;DHT22;4359;49.358;11.256;2022-10-31T13:19:03;22.10;99.90
8643;DHT22;4359;49.358;11.256;2022-10-31T13:21:35;21.90;99.90
8643;DHT22;4359;49.358;11.256;2022-10-31T13:24:04;21.90;99.90
8643;DHT22;4359;49.358;11.256;2022-10-31T13:26:44;21.80;99.90
8643;DHT22;4359;49.358;11.256;2022-10-31T13:29:23;21.70;99.90
8643;DHT22;4359;49.358;11.256;2022-10-31T13:31:50;21.60;99.90
8643;DHT22;4359;49.358;11.256;2022-10-31T13:34:26;21.50;99.90
8643;DHT22;4359;49.358;11.256;2022-10-31T13:45:23;21.20;99.90
8643;DHT22;4359;49.358;11.256;2022-10-31T13:48:32;21.30;99.90
8643;DHT22;4359;49.358;11.256;2022-10-31T13:51:04;21.20;99.90
8643;DHT22;4359;49.358;11.256;2022-10-31T13:53:45;21.20;99.90
8643;DHT22;4359;49.358;11.256;2022-10-31T13:56:24;21.30;99.90
8643;DHT22;4359;49.358;11.256;2022-10-31T14:01:34;21.70;99.90
8643;DHT22;4359;49.358;11.256;2022-10-31T14:04:16;21.90;99.90
8643;DHT22;4359;49.358;11.256;2022-10-31T14:07:10;22.10;99.90
8643;DHT22;4359;49.358;11.256;2022-10-31T14:09:41;22.40;99.90
8643;DHT22;4359;49.358;11.256;2022-10-31T14:12:37;22.40;99.90
8643;DHT22;4359;49.358;11.256;2022-10-31T14:15:24;22.30;99.90
8643;DHT22;4359;49.358;11.256;2022-10-31T14:18:00;22.20;99.90
8643;DHT22;4359;49.358;11.256;2022-10-31T14:20:39;21.90;99.90
8643;DHT22;4359;49.358;11.256;2022-10-31T14:28:56;21.20;99.90
8643;DHT22;4359;49.358;11.256;2022-10-31T14:31:36;21.00;99.90
8643;DHT22;4359;49.358;11.256;2022-10-31T14:34:43;20.70;99.90
8643;DHT22;4359;49.358;11.256;2022-10-31T14:51:36;19.70;99.90
8643;DHT22;4359;49.358;11.256;2022-10-31T14:54:05;19.60;99.90
8643;DHT22;4359;49.358;11.256;2022-10-31T14:56:34;19.40;99.90
8643;DHT22;4359;49.358;11.256;2022-10-31T14:59:07;19.20;99.90
8643;DHT22;4359;49.358;11.256;2022-10-31T15:01:36;19.00;99.90
8643;DHT22;4359;49.358;11.256;2022-10-31T15:06:48;18.70;99.90
8643;DHT22;4359;49.358;11.256;2022-10-31T15:09:33;18.60;99.90
8643;DHT22;4359;49.358;11.256;2022-10-31T15:12:00;18.40;99.90
8643;DHT22;4359;49.358;11.256;2022-10-31T15:14:30;18.30;99.90
8643;DHT22;4359;49.358;11.256;2022-10-31T15:17:02;18.10;99.90
8643;DHT22;4359;49.358;11.256;2022-10-31T15:19:30;17.90;99.90
8643;DHT22;4359;49.358;11.256;2022-10-31T15:21:58;17.60;99.90
8643;DHT22;4359;49.358;11.256;2022-10-31T15:24:33;17.50;99.90
8643;DHT22;4359;49.358;11.256;2022-10-31T15:27:02;17.40;99.90
8643;DHT22;4359;49.358;11.256;2022-10-31T15:29:28;17.20;99.90
8643;DHT22;4359;49.358;11.256;2022-10-31T15:31:58;17.20;99.90
8643;DHT22;4359;49.358;11.256;2022-10-31T15:34:42;17.10;99.90
8643;DHT22;4359;49.358;11.256;2022-10-31T15:37:12;17.00;99.90
8643;DHT22;4359;49.358;11.256;2022-10-31T15:39:39;17.00;99.90
8643;DHT22;4359;49.358;11.256;2022-10-31T15:42:22;16.90;99.90
8643;DHT22;4359;49.358;11.256;2022-10-31T15:47:26;16.40;99.90
8643;DHT22;4359;49.358;11.256;2022-10-31T15:49:59;16.10;99.90
8643;DHT22;4359;49.358;11.256;2022-10-31T15:52:39;15.80;99.90
8643;DHT22;4359;49.358;11.256;2022-10-31T15:57:40;15.50;99.90
8643;DHT22;4359;49.358;11.256;2022-10-31T16:00:20;15.50;99.90
8643;DHT22;4359;49.358;11.256;2022-10-31T16:02:46;15.50;99.90
8643;DHT22;4359;49.358;11.256;2022-10-31T16:05:18;15.50;99.90
8643;DHT22;4359;49.358;11.256;2022-10-31T16:07:51;15.50;99.90
8643;DHT22;4359;49.358;11.256;2022-10-31T16:10:25;15.50;99.90
8643;DHT22;4359;49.358;11.256;2022-10-31T16:12:52;15.50;99.90
8643;DHT22;4359;49.358;11.256;2022-10-31T16:15:19;15.50;99.90
8643;DHT22;4359;49.358;11.256;2022-10-31T16:17:49;15.40;99.90
8643;DHT22;4359;49.358;11.256;2022-10-31T16:20:22;15.30;99.90
8643;DHT22;4359;49.358;11.256;2022-10-31T16:22:51;15.20;99.90
8643;DHT22;4359;49.358;11.256;2022-10-31T16:25:33;15.20;99.90
8643;DHT22;4359;49.358;11.256;2022-10-31T16:28:04;15.10;99.90
8643;DHT22;4359;49.358;11.256;2022-10-31T16:30:42;14.90;99.90
8643;DHT22;4359;49.358;11.256;2022-10-31T16:33:37;14.70;99.90
8643;DHT22;4359;49.358;11.256;2022-10-31T16:38:54;14.30;99.90
8643;DHT22;4359;49.358;11.256;2022-10-31T16:41:20;14.20;99.90
8643;DHT22;4359;49.358;11.256;2022-10-31T16:43:46;14.00;99.90
8643;DHT22;4359;49.358;11.256;2022-10-31T16:46:24;13.90;99.90
8643;DHT22;4359;49.358;11.256;2022-10-31T16:48:50;13.70;99.90
8643;DHT22;4359;49.358;11.256;2022-10-31T16:51:16;13.50;99.90
8643;DHT22;4359;49.358;11.256;2022-10-31T16:53:41;13.40;99.90
8643;DHT22;4359;49.358;11.256;2022-10-31T16:56:15;13.20;99.90
8643;DHT22;4359;49.358;11.256;2022-10-31T16:58:41;13.10;99.90
8643;DHT22;4359;49.358;11.256;2022-10-31T17:01:07;12.90;99.90
8643;DHT22;4359;49.358;11.256;2022-10-31T17:03:33;12.80;99.90
8643;DHT22;4359;49.358;11.256;2022-10-31T17:05:59;12.70;99.90
8643;DHT22;4359;49.358;11.256;2022-10-31T17:08:24;12.60;99.90
8643;DHT22;4359;49.358;11.256;2022-10-31T17:10:53;12.50;99.90
8643;DHT22;4359;49.358;11.256;2022-10-31T17:13:22;12.40;99.90
8643;DHT22;4359;49.358;11.256;2022-10-31T17:15:51;12.30;99.90
8643;DHT22;4359;49.358;11.256;2022-10-31T17:18:18;12.20;99.90
8643;DHT22;4359;49.358;11.256;2022-10-31T17:20:45;12.10;99.90
8643;DHT22;4359;49.358;11.256;2022-10-31T17:23:13;12.00;99.90
8643;DHT22;4359;49.358;11.256;2022-10-31T17:25:40;12.20;99.90
8643;DHT22;4359;49.358;11.256;2022-10-31T17:28:06;12.30;99.90
8643;DHT22;4359;49.358;11.256;2022-10-31T17:30:32;12.20;99.90
8643;DHT22;4359;49.358;11.256;2022-10-31T17:32:59;12.10;99.90
8643;DHT22;4359;49.358;11.256;2022-10-31T17:35:25;12.00;99.90
8643;DHT22;4359;49.358;11.256;2022-10-31T17:37:51;11.90;99.90
8643;DHT22;4359;49.358;11.256;2022-10-31T17:40:18;11.90;99.90
8643;DHT22;4359;49.358;11.256;2022-10-31T17:42:51;11.80;99.90
8643;DHT22;4359;49.358;11.256;2022-10-31T17:45:18;11.60;99.90
8643;DHT22;4359;49.358;11.256;2022-10-31T17:47:49;11.50;99.90
8643;DHT22;4359;49.358;11.256;2022-10-31T17:50:23;11.40;99.90
8643;DHT22;4359;49.358;11.256;2022-10-31T17:52:49;11.30;99.90
8643;DHT22;4359;49.358;11.256;2022-10-31T17:55:16;11.30;99.90
8643;DHT22;4359;49.358;11.256;2022-10-31T17:57:42;11.40;99.90
8643;DHT22;4359;49.358;11.256;2022-10-31T18:00:13;11.40;99.90
8643;DHT22;4359;49.358;11.256;2022-10-31T18:02:39;11.30;99.90
8643;DHT22;4359;49.358;11.256;2022-10-31T18:05:05;11.20;99.90
8643;DHT22;4359;49.358;11.256;2022-10-31T18:07:32;11.10;99.90
8643;DHT22;4359;49.358;11.256;2022-10-31T18:09:58;11.00;99.90
8643;DHT22;4359;49.358;11.256;2022-10-31T18:12:24;10.90;99.90
8643;DHT22;4359;49.358;11.256;2022-10-31T18:14:51;10.80;99.90
8643;DHT22;4359;49.358;11.256;2022-10-31T18:17:17;10.80;99.90
8643;DHT22;4359;49.358;11.256;2022-10-31T18:19:45;10.90;99.90
8643;DHT22;4359;49.358;11.256;2022-10-31T18:22:11;10.90;99.90